Time;durP1;ratioP1;P1;durP2;ratioP2;P2;SDS_P1;SDS_P2;PMS_P1;PMS_P2;Temp;Humidity;BMP_temperature;BMP_pressure;BME280_temperature;BME280_humidity;BME280_pressure;Samples;Min_cycle;Max_cycle;Signal;HPM_P1;HPM_P2
2022/04/06 00:00:12;;;;;;;0.00;0.00;;;10.50;90.10;;;;;;4150488;28;20050;-67
2022/04/06 00:02:39;;;;;;;0.00;0.00;;;10.50;90.10;;;;;;4150762;28;20045;-68
2022/04/06 00:05:06;;;;;;;0.00;0.00;;;10.60;90.10;;;;;;4163786;28;20061;-68
2022/04/06 00:07:28;;;;;;;0.00;0.00;;;10.60;90.10;;;;;;4150568;28;20084;-69
2022/04/06 00:09:58;;;;;;;0.00;0.00;;;10.40;90.10;;;;;;4151434;28;20049;-69
2022/04/06 00:12:23;;;;;;;0.00;0.00;;;10.20;90.30;;;;;;4150677;28;20049;-70
2022/04/06 00:14:54;;;;;;;0.00;0.00;;;10.20;90.50;;;;;;4163676;28;20045;-69
2022/04/06 00:17:22;;;;;;;0.00;0.00;;;10.20;90.50;;;;;;4164035;28;20083;-69
2022/04/06 00:19:47;;;;;;;0.00;0.00;;;10.20;90.60;;;;;;4124071;28;20054;-68
2022/04/06 00:22:25;;;;;;;0.00;0.00;;;9.90;91.10;;;;;;4152186;28;20068;-70
2022/04/06 00:24:51;;;;;;;0.00;0.00;;;9.80;91.50;;;;;;4164376;28;20392;-68
2022/04/06 00:27:29;;;;;;;0.00;0.00;;;9.70;91.80;;;;;;4163937;28;20045;-68
2022/04/06 00:29:53;;;;;;;0.00;0.00;;;9.60;92.20;;;;;;4150607;28;20379;-70
2022/04/06 00:32:33;;;;;;;0.00;0.00;;;9.50;92.40;;;;;;4166250;28;20059;-71
2022/04/06 00:37:43;;;;;;;0.00;0.00;;;9.50;92.50;;;;;;4164069;28;20046;-67
2022/04/06 00:40:09;;;;;;;0.00;0.00;;;9.60;92.50;;;;;;4164017;28;20465;-70
2022/04/06 00:42:56;;;;;;;0.00;0.00;;;9.60;92.40;;;;;;4164287;28;20140;-67
2022/04/06 00:45:23;;;;;;;0.00;0.00;;;9.70;92.30;;;;;;4163819;28;20151;-69
2022/04/06 00:47:52;;;;;;;0.00;0.00;;;9.90;92.20;;;;;;4163813;28;20099;-67
2022/04/06 00:50:34;;;;;;;0.00;0.00;;;9.90;92.00;;;;;;4152229;28;20045;-70
2022/04/06 00:53:00;;;;;;;0.00;0.00;;;10.00;91.90;;;;;;4149700;28;20054;-70
2022/04/06 00:55:39;;;;;;;0.00;0.00;;;10.10;92.10;;;;;;4163824;28;20049;-68
2022/04/06 00:58:11;;;;;;;0.00;0.00;;;10.10;91.80;;;;;;4180355;28;20053;-68
2022/04/06 01:00:46;;;;;;;0.00;0.00;;;10.10;91.80;;;;;;4167383;28;20053;-71
2022/04/06 01:03:10;;;;;;;0.00;0.00;;;10.10;91.70;;;;;;4181157;28;20053;-70
2022/04/06 01:05:47;;;;;;;0.00;0.00;;;10.10;91.70;;;;;;4180828;28;20053;-70
2022/04/06 01:08:12;;;;;;;0.00;0.00;;;10.10;91.80;;;;;;4168540;28;20041;-71
2022/04/06 01:10:45;;;;;;;0.00;0.00;;;9.90;92.00;;;;;;4184254;28;20037;-69
2022/04/06 01:13:20;;;;;;;0.00;0.00;;;9.80;92.20;;;;;;4170972;28;20051;-68
2022/04/06 01:15:52;;;;;;;0.00;0.00;;;9.80;92.20;;;;;;4169715;28;20037;-70
2022/04/06 01:18:25;;;;;;;0.00;0.00;;;9.80;92.30;;;;;;4184042;28;20048;-69
2022/04/06 01:20:49;;;;;;;0.00;0.00;;;9.80;92.30;;;;;;4183699;28;20088;-70
2022/04/06 01:23:24;;;;;;;0.00;0.00;;;9.90;92.20;;;;;;4171189;28;20519;-70
2022/04/06 01:26:00;;;;;;;0.00;0.00;;;9.90;92.10;;;;;;4171224;28;20106;-70
2022/04/06 01:28:29;;;;;;;0.00;0.00;;;9.90;92.00;;;;;;4184020;28;20087;-68
2022/04/06 01:31:10;;;;;;;0.00;0.00;;;9.90;92.00;;;;;;4183663;28;20099;-69
2022/04/06 01:33:38;;;;;;;0.00;0.00;;;10.00;92.10;;;;;;4169216;28;20037;-71
2022/04/06 01:36:03;;;;;;;0.00;0.00;;;9.90;92.10;;;;;;4155882;28;20107;-69
2022/04/06 01:38:30;;;;;;;0.00;0.00;;;9.80;92.30;;;;;;4169325;28;20043;-69
2022/04/06 01:40:55;;;;;;;0.00;0.00;;;9.80;92.40;;;;;;4154733;28;20488;-68
2022/04/06 01:43:17;;;;;;;0.00;0.00;;;9.80;92.40;;;;;;4155674;28;20049;-67
2022/04/06 01:45:43;;;;;;;0.00;0.00;;;9.80;92.50;;;;;;4156040;28;20045;-69
2022/04/06 01:48:05;;;;;;;0.00;0.00;;;9.70;92.50;;;;;;4155351;28;20053;-73
2022/04/06 01:53:10;;;;;;;0.00;0.00;;;9.70;92.80;;;;;;4168669;28;20049;-70
2022/04/06 01:55:32;;;;;;;0.00;0.00;;;9.60;92.90;;;;;;4155318;28;20546;-69
2022/04/06 01:57:55;;;;;;;0.00;0.00;;;9.60;92.90;;;;;;4168442;28;20064;-68
2022/04/06 02:00:18;;;;;;;0.00;0.00;;;9.70;92.90;;;;;;4168754;28;20136;-67
2022/04/06 02:02:44;;;;;;;0.00;0.00;;;9.70;92.90;;;;;;4155004;28;20115;-70
2022/04/06 02:05:08;;;;;;;0.00;0.00;;;9.70;92.90;;;;;;4155647;28;20133;-69
2022/04/06 02:07:30;;;;;;;0.00;0.00;;;9.60;93.00;;;;;;4154893;28;20038;-70
2022/04/06 02:09:58;;;;;;;0.00;0.00;;;9.60;93.10;;;;;;4168547;28;20133;-68
2022/04/06 02:12:24;;;;;;;0.00;0.00;;;9.60;93.20;;;;;;4168704;28;20045;-70
2022/04/06 02:14:48;;;;;;;0.00;0.00;;;9.60;93.10;;;;;;4168127;28;20490;-68
2022/04/06 02:17:12;;;;;;;0.00;0.00;;;9.70;93.10;;;;;;4154962;28;20042;-69
2022/04/06 02:19:39;;;;;;;0.00;0.00;;;9.90;92.80;;;;;;4168410;28;20045;-68
2022/04/06 02:22:05;;;;;;;0.00;0.00;;;10.00;92.60;;;;;;4154742;28;20137;-70
2022/04/06 02:24:29;;;;;;;0.00;0.00;;;10.00;92.50;;;;;;4154908;28;20046;-68
2022/04/06 02:26:52;;;;;;;0.00;0.00;;;10.00;92.50;;;;;;4168212;28;20115;-72
2022/04/06 02:29:16;;;;;;;0.00;0.00;;;10.10;92.40;;;;;;4154783;28;20042;-70
2022/04/06 02:31:41;;;;;;;0.00;0.00;;;10.10;92.20;;;;;;4168250;28;20435;-69
2022/04/06 02:34:03;;;;;;;0.00;0.00;;;10.10;92.30;;;;;;4168349;28;20526;-69
2022/04/06 02:36:25;;;;;;;0.00;0.00;;;10.10;92.20;;;;;;4154644;28;20042;-68
2022/04/06 02:38:47;;;;;;;0.00;0.00;;;10.10;92.20;;;;;;4167865;28;20127;-68
2022/04/06 02:41:09;;;;;;;0.00;0.00;;;10.10;92.20;;;;;;4154301;28;20049;-72
2022/04/06 02:43:31;;;;;;;0.00;0.00;;;10.10;92.30;;;;;;4168358;28;20079;-68
2022/04/06 02:45:53;;;;;;;0.00;0.00;;;9.90;92.40;;;;;;4154439;28;20053;-68
2022/04/06 02:48:18;;;;;;;0.00;0.00;;;9.90;92.60;;;;;;4154400;28;20057;-70
2022/04/06 02:50:45;;;;;;;0.00;0.00;;;9.80;92.70;;;;;;4154275;28;20427;-68
2022/04/06 02:53:11;;;;;;;0.00;0.00;;;9.80;92.80;;;;;;4154310;28;20041;-69
2022/04/06 02:55:37;;;;;;;0.00;0.00;;;9.80;92.90;;;;;;4168065;28;20053;-69
2022/04/06 02:58:01;;;;;;;0.00;0.00;;;9.70;92.90;;;;;;4153964;28;20108;-71
2022/04/06 03:00:23;;;;;;;0.00;0.00;;;9.60;93.00;;;;;;4167905;28;20133;-70
2022/04/06 03:02:46;;;;;;;0.00;0.00;;;9.60;93.20;;;;;;4167611;28;20132;-72
2022/04/06 03:05:10;;;;;;;0.00;0.00;;;9.60;93.20;;;;;;4167786;28;20045;-71
2022/04/06 03:07:32;;;;;;;0.00;0.00;;;9.60;93.10;;;;;;4167961;28;20038;-71
2022/04/06 03:09:54;;;;;;;0.00;0.00;;;9.70;93.00;;;;;;4167765;28;20106;-69
2022/04/06 03:12:16;;;;;;;0.00;0.00;;;9.70;92.90;;;;;;4167783;28;20045;-68
2022/04/06 03:14:41;;;;;;;0.00;0.00;;;9.60;92.90;;;;;;4154116;28;20140;-67
2022/04/06 03:17:05;;;;;;;0.00;0.00;;;9.50;93.00;;;;;;4167147;28;20049;-68
2022/04/06 03:19:30;;;;;;;0.00;0.00;;;9.40;93.20;;;;;;4153899;28;20038;-68
2022/04/06 03:21:56;;;;;;;0.00;0.00;;;9.40;93.20;;;;;;4167401;28;20068;-70
2022/04/06 03:24:18;;;;;;;0.00;0.00;;;9.40;93.10;;;;;;4167616;28;20120;-68
2022/04/06 03:26:40;;;;;;;0.00;0.00;;;9.40;93.10;;;;;;4153700;28;20526;-71
2022/04/06 03:29:04;;;;;;;0.00;0.00;;;9.50;93.00;;;;;;4154181;28;20042;-67
2022/04/06 03:31:26;;;;;;;0.00;0.00;;;9.40;92.90;;;;;;4153489;28;20046;-70
2022/04/06 03:33:53;;;;;;;0.00;0.00;;;9.50;92.90;;;;;;4167330;28;20038;-67
2022/04/06 03:36:17;;;;;;;0.00;0.00;;;9.60;92.80;;;;;;4167411;28;20038;-69
2022/04/06 03:38:42;;;;;;;0.00;0.00;;;9.70;92.60;;;;;;4166829;28;20407;-71
2022/04/06 03:41:04;;;;;;;0.00;0.00;;;9.70;92.50;;;;;;4167139;28;20053;-67
2022/04/06 03:43:29;;;;;;;0.00;0.00;;;9.70;92.50;;;;;;4167364;28;20391;-70
2022/04/06 03:45:51;;;;;;;0.00;0.00;;;9.60;92.60;;;;;;4153387;28;20045;-70
2022/04/06 03:48:16;;;;;;;0.00;0.00;;;9.70;92.60;;;;;;4166955;28;20404;-67
2022/04/06 03:50:39;;;;;;;0.00;0.00;;;9.70;92.60;;;;;;4167109;28;20037;-69
2022/04/06 03:53:01;;;;;;;0.00;0.00;;;9.70;92.60;;;;;;4180958;28;20436;-69
2022/04/06 03:55:23;;;;;;;0.00;0.00;;;9.60;92.60;;;;;;4167305;28;20038;-67
2022/04/06 03:57:47;;;;;;;0.00;0.00;;;9.70;92.60;;;;;;4153539;28;20038;-66
2022/04/06 04:00:12;;;;;;;0.00;0.00;;;9.70;92.50;;;;;;4153831;28;20045;-69
2022/04/06 04:02:35;;;;;;;0.00;0.00;;;9.80;92.40;;;;;;4167197;28;20048;-69
2022/04/06 04:04:59;;;;;;;0.00;0.00;;;9.90;92.40;;;;;;4166973;28;20112;-70
2022/04/06 04:07:21;;;;;;;0.00;0.00;;;9.80;92.30;;;;;;4153504;28;20041;-70
2022/04/06 04:09:45;;;;;;;0.00;0.00;;;9.80;92.40;;;;;;4167328;28;20076;-70
2022/04/06 04:12:10;;;;;;;0.00;0.00;;;9.80;92.40;;;;;;4167076;28;20053;-68
2022/04/06 04:14:34;;;;;;;0.00;0.00;;;9.80;92.40;;;;;;4139740;28;20564;-68
2022/04/06 04:16:57;;;;;;;0.00;0.00;;;9.70;92.50;;;;;;4153087;28;20108;-67
2022/04/06 04:19:19;;;;;;;0.00;0.00;;;9.60;92.60;;;;;;4153554;28;20072;-69
2022/04/06 04:21:44;;;;;;;0.00;0.00;;;9.60;92.70;;;;;;4167070;28;20057;-68
2022/04/06 04:24:10;;;;;;;0.00;0.00;;;9.60;92.80;;;;;;4167040;28;20053;-68
2022/04/06 04:26:34;;;;;;;0.00;0.00;;;9.50;92.80;;;;;;4167036;28;20682;-69
2022/04/06 04:28:59;;;;;;;0.00;0.00;;;9.50;93.00;;;;;;4166472;28;20053;-67
2022/04/06 04:31:24;;;;;;;0.00;0.00;;;9.30;93.30;;;;;;4153487;28;20045;-70
2022/04/06 04:33:49;;;;;;;0.00;0.00;;;9.30;93.30;;;;;;4154002;28;20111;-68
2022/04/06 04:36:11;;;;;;;0.00;0.00;;;9.40;93.30;;;;;;4166932;28;20568;-68
2022/04/06 04:38:33;;;;;;;0.00;0.00;;;9.30;93.40;;;;;;4153203;28;20034;-71
2022/04/06 04:40:58;;;;;;;0.00;0.00;;;9.30;93.50;;;;;;4152396;28;20129;-70
2022/04/06 04:43:22;;;;;;;0.00;0.00;;;9.20;93.60;;;;;;4153206;28;20041;-72
2022/04/06 04:45:44;;;;;;;0.00;0.00;;;9.20;93.70;;;;;;4166885;28;20054;-68
2022/04/06 04:48:09;;;;;;;0.00;0.00;;;9.20;93.80;;;;;;4153175;28;20473;-69
2022/04/06 04:50:31;;;;;;;0.00;0.00;;;9.20;93.90;;;;;;4166947;28;20064;-73
2022/04/06 04:52:57;;;;;;;0.00;0.00;;;9.30;93.80;;;;;;4166356;28;20103;-70
2022/04/06 04:55:19;;;;;;;0.00;0.00;;;9.50;93.50;;;;;;4166718;28;20053;-69
2022/04/06 04:57:41;;;;;;;0.00;0.00;;;9.60;93.30;;;;;;4152570;28;20050;-67
2022/04/06 05:00:08;;;;;;;0.00;0.00;;;9.70;93.10;;;;;;4153199;28;20470;-71
2022/04/06 05:02:30;;;;;;;0.00;0.00;;;9.80;93.00;;;;;;4153372;28;20041;-70
2022/04/06 05:04:52;;;;;;;0.00;0.00;;;9.90;92.80;;;;;;4152781;28;20116;-69
2022/04/06 05:07:14;;;;;;;0.00;0.00;;;9.90;92.60;;;;;;4153283;28;20088;-69
2022/04/06 05:09:36;;;;;;;0.00;0.00;;;9.90;92.60;;;;;;4152867;28;20081;-67
2022/04/06 05:11:59;;;;;;;0.00;0.00;;;9.90;92.60;;;;;;4166619;28;20065;-68
2022/04/06 05:14:22;;;;;;;0.00;0.00;;;9.80;92.70;;;;;;4152930;28;20053;-68
2022/04/06 05:16:44;;;;;;;0.00;0.00;;;9.90;92.60;;;;;;4166280;28;20045;-67
2022/04/06 05:19:10;;;;;;;0.00;0.00;;;9.90;92.50;;;;;;4152673;28;20038;-69
2022/04/06 05:21:35;;;;;;;0.00;0.00;;;9.90;92.60;;;;;;4152699;28;20111;-70
2022/04/06 05:23:58;;;;;;;0.00;0.00;;;10.00;92.30;;;;;;4152980;28;20050;-67
2022/04/06 05:26:19;;;;;;;0.00;0.00;;;10.00;92.20;;;;;;4152697;28;20053;-67
2022/04/06 05:28:44;;;;;;;0.00;0.00;;;10.00;92.10;;;;;;4166069;28;20095;-71
2022/04/06 05:31:06;;;;;;;0.00;0.00;;;10.00;92.20;;;;;;4166788;28;20045;-68
2022/04/06 05:33:31;;;;;;;0.00;0.00;;;10.00;92.20;;;;;;4166316;28;20046;-71
2022/04/06 05:35:55;;;;;;;0.00;0.00;;;10.10;92.20;;;;;;4152261;28;20053;-70
2022/04/06 05:38:17;;;;;;;0.00;0.00;;;10.20;92.20;;;;;;4166357;28;20046;-71
2022/04/06 05:40:39;;;;;;;0.00;0.00;;;10.20;92.20;;;;;;4165540;28;20045;-70
2022/04/06 05:43:04;;;;;;;0.00;0.00;;;10.20;92.10;;;;;;4152668;28;20064;-73
2022/04/06 05:45:26;;;;;;;0.00;0.00;;;10.20;92.10;;;;;;4166097;28;20057;-69
2022/04/06 05:47:52;;;;;;;0.00;0.00;;;10.20;92.20;;;;;;4139375;28;20095;-70
2022/04/06 05:50:17;;;;;;;0.00;0.00;;;10.20;92.20;;;;;;4152658;28;20045;-73
2022/04/06 05:52:45;;;;;;;0.00;0.00;;;10.10;92.30;;;;;;4165791;28;20111;-72
2022/04/06 05:55:10;;;;;;;0.00;0.00;;;10.20;92.30;;;;;;4169266;28;20365;-71
2022/04/06 05:57:32;;;;;;;0.00;0.00;;;10.00;92.50;;;;;;4155381;28;20050;-71
2022/04/06 05:59:54;;;;;;;0.00;0.00;;;9.80;93.00;;;;;;4168993;28;20046;-69
2022/04/06 06:02:16;;;;;;;0.00;0.00;;;9.70;93.30;;;;;;4141574;28;20436;-70
2022/04/06 06:04:41;;;;;;;0.00;0.00;;;9.70;93.40;;;;;;4154657;28;20535;-71
2022/04/06 06:07:05;;;;;;;0.00;0.00;;;9.70;93.40;;;;;;4141648;28;20069;-74
2022/04/06 06:09:34;;;;;;;0.00;0.00;;;9.60;93.40;;;;;;4155231;28;20472;-69
2022/04/06 06:11:57;;;;;;;0.00;0.00;;;9.70;93.40;;;;;;4155043;28;20553;-69
2022/04/06 06:14:18;;;;;;;0.00;0.00;;;9.80;93.30;;;;;;4155455;28;20084;-70
2022/04/06 06:16:41;;;;;;;0.00;0.00;;;9.90;93.00;;;;;;4168358;28;20049;-71
2022/04/06 06:19:05;;;;;;;0.00;0.00;;;10.10;92.80;;;;;;4168940;28;20041;-70
2022/04/06 06:21:32;;;;;;;0.00;0.00;;;10.10;92.60;;;;;;4154971;28;20041;-73
2022/04/06 06:23:54;;;;;;;0.00;0.00;;;10.10;92.50;;;;;;4168450;28;20088;-72
2022/04/06 06:26:16;;;;;;;0.00;0.00;;;10.30;92.40;;;;;;4154498;28;20108;-69
2022/04/06 06:28:39;;;;;;;0.00;0.00;;;10.30;92.10;;;;;;4168231;28;20054;-69
2022/04/06 06:31:03;;;;;;;0.00;0.00;;;10.30;91.90;;;;;;4168053;28;20475;-70
2022/04/06 06:33:27;;;;;;;0.00;0.00;;;10.10;92.10;;;;;;4154789;28;20073;-73
2022/04/06 06:35:50;;;;;;;0.00;0.00;;;9.90;92.40;;;;;;4141001;28;20050;-74
2022/04/06 06:38:12;;;;;;;0.00;0.00;;;9.80;92.60;;;;;;4168375;28;20084;-72
2022/04/06 06:40:36;;;;;;;0.00;0.00;;;9.80;92.70;;;;;;4154505;28;20495;-72
2022/04/06 06:43:01;;;;;;;0.00;0.00;;;9.90;92.80;;;;;;4154016;28;20478;-72
2022/04/06 06:45:23;;;;;;;0.00;0.00;;;10.00;92.70;;;;;;4154607;28;20052;-70
2022/04/06 06:47:47;;;;;;;0.00;0.00;;;10.10;92.40;;;;;;4168193;28;20048;-70
2022/04/06 06:50:18;;;;;;;0.00;0.00;;;10.20;92.20;;;;;;4168127;28;20492;-69
2022/04/06 06:52:42;;;;;;;0.00;0.00;;;10.30;92.20;;;;;;4153831;28;20128;-68
2022/04/06 06:55:11;;;;;;;0.00;0.00;;;10.30;92.10;;;;;;4155500;28;20479;-71
2022/04/06 06:57:33;;;;;;;0.00;0.00;;;10.40;92.10;;;;;;4164860;28;20468;-71
2022/04/06 06:59:57;;;;;;;0.00;0.00;;;10.50;92.10;;;;;;4151442;28;20038;-69
2022/04/06 07:02:19;;;;;;;0.00;0.00;;;10.60;92.00;;;;;;4151139;28;20052;-70
2022/04/06 07:04:41;;;;;;;0.00;0.00;;;10.60;92.10;;;;;;4150419;28;20045;-70
2022/04/06 07:07:03;;;;;;;0.00;0.00;;;10.50;92.00;;;;;;4137774;28;20046;-72
2022/04/06 07:09:27;;;;;;;0.00;0.00;;;10.50;92.20;;;;;;4151514;28;20057;-69
2022/04/06 07:11:52;;;;;;;0.00;0.00;;;10.60;92.00;;;;;;4151568;28;20369;-71
2022/04/06 07:14:17;;;;;;;0.00;0.00;;;10.50;92.00;;;;;;4165138;28;20446;-71
2022/04/06 07:16:41;;;;;;;0.00;0.00;;;10.60;92.00;;;;;;4164955;28;20131;-71
2022/04/06 07:19:03;;;;;;;0.00;0.00;;;10.70;91.90;;;;;;4137898;28;20109;-72
2022/04/06 07:21:27;;;;;;;0.00;0.00;;;10.80;91.80;;;;;;4137860;28;20046;-71
2022/04/06 07:23:50;;;;;;;0.00;0.00;;;11.00;91.60;;;;;;4165030;28;20045;-73
2022/04/06 07:26:13;;;;;;;0.00;0.00;;;11.10;91.30;;;;;;4150985;28;20046;-70
2022/04/06 07:28:35;;;;;;;0.00;0.00;;;11.30;91.20;;;;;;4137671;28;20052;-72
2022/04/06 07:31:02;;;;;;;0.00;0.00;;;11.40;91.00;;;;;;4151001;28;20057;-74
2022/04/06 07:33:24;;;;;;;0.00;0.00;;;11.50;90.60;;;;;;4151440;28;20083;-72
2022/04/06 07:35:49;;;;;;;0.00;0.00;;;11.60;90.30;;;;;;4165035;28;20057;-70
2022/04/06 07:38:14;;;;;;;0.00;0.00;;;11.70;90.20;;;;;;4164997;28;20053;-72
2022/04/06 07:40:36;;;;;;;0.00;0.00;;;11.90;90.10;;;;;;4165374;28;20041;-72
2022/04/06 07:42:59;;;;;;;0.00;0.00;;;11.90;89.20;;;;;;4151083;28;20066;-71
2022/04/06 07:45:24;;;;;;;0.00;0.00;;;12.10;89.50;;;;;;4164921;28;20049;-72
2022/04/06 07:47:49;;;;;;;0.00;0.00;;;12.50;88.90;;;;;;4165020;28;20101;-70
2022/04/06 07:50:14;;;;;;;0.00;0.00;;;12.80;87.40;;;;;;4151331;28;20073;-72
2022/04/06 07:52:36;;;;;;;0.00;0.00;;;12.90;86.20;;;;;;4165100;28;20091;-73
2022/04/06 07:55:06;;;;;;;0.00;0.00;;;12.90;85.30;;;;;;4150918;28;20190;-71
2022/04/06 07:57:31;;;;;;;0.00;0.00;;;12.90;84.60;;;;;;4137574;28;20054;-72
2022/04/06 07:59:54;;;;;;;0.00;0.00;;;12.80;83.90;;;;;;4150960;28;20080;-70
2022/04/06 08:02:19;;;;;;;0.00;0.00;;;12.70;83.70;;;;;;4151140;28;20119;-70
2022/04/06 08:04:44;;;;;;;0.00;0.00;;;12.70;84.20;;;;;;4150956;28;20057;-71
2022/04/06 08:07:06;;;;;;;0.00;0.00;;;12.90;84.10;;;;;;4150974;28;20089;-71
2022/04/06 08:09:30;;;;;;;0.00;0.00;;;13.10;83.30;;;;;;4151460;28;20395;-72
2022/04/06 08:11:54;;;;;;;0.00;0.00;;;13.20;82.00;;;;;;4151198;28;20054;-74
2022/04/06 08:14:18;;;;;;;0.00;0.00;;;13.10;81.10;;;;;;4164667;28;20060;-72
2022/04/06 08:16:42;;;;;;;0.00;0.00;;;13.00;81.60;;;;;;4163636;28;20059;-72
2022/04/06 08:19:08;;;;;;;0.00;0.00;;;13.00;81.30;;;;;;4151778;28;20084;-69
2022/04/06 08:21:35;;;;;;;0.00;0.00;;;13.00;81.60;;;;;;4150924;28;20069;-71
2022/04/06 08:24:00;;;;;;;0.00;0.00;;;13.10;81.40;;;;;;4150926;28;20160;-72
2022/04/06 08:26:24;;;;;;;0.00;0.00;;;13.20;81.40;;;;;;4150431;28;20044;-71
2022/04/06 08:28:47;;;;;;;0.00;0.00;;;13.20;80.50;;;;;;4163489;28;20045;-72
2022/04/06 08:31:12;;;;;;;0.00;0.00;;;13.10;80.50;;;;;;4150219;28;20057;-68
2022/04/06 08:33:38;;;;;;;0.00;0.00;;;13.00;81.20;;;;;;4150867;28;20046;-70
2022/04/06 08:36:06;;;;;;;0.00;0.00;;;13.10;81.20;;;;;;4150550;28;20050;-73
2022/04/06 08:38:28;;;;;;;0.00;0.00;;;13.20;81.10;;;;;;4150259;28;20104;-71
2022/04/06 08:40:50;;;;;;;0.00;0.00;;;13.30;81.00;;;;;;4149967;28;20093;-73
2022/04/06 08:43:14;;;;;;;0.00;0.00;;;13.30;80.70;;;;;;4150460;28;20082;-70
2022/04/06 08:45:40;;;;;;;0.00;0.00;;;13.30;80.60;;;;;;4163995;28;20042;-71
2022/04/06 08:48:09;;;;;;;0.00;0.00;;;13.20;80.30;;;;;;4163930;28;20480;-70
2022/04/06 08:50:34;;;;;;;0.00;0.00;;;13.10;80.50;;;;;;4163846;28;20050;-71
2022/04/06 08:53:02;;;;;;;0.00;0.00;;;13.30;80.90;;;;;;4149742;28;20045;-70
2022/04/06 08:55:24;;;;;;;0.00;0.00;;;13.40;80.50;;;;;;4150444;28;20045;-70
2022/04/06 08:57:46;;;;;;;0.00;0.00;;;13.70;80.20;;;;;;4150042;28;20484;-71
2022/04/06 09:00:10;;;;;;;0.00;0.00;;;13.80;79.70;;;;;;4150429;28;20061;-69
2022/04/06 09:02:32;;;;;;;0.00;0.00;;;13.80;79.20;;;;;;4163753;28;20053;-70
2022/04/06 09:04:55;;;;;;;0.00;0.00;;;13.70;79.40;;;;;;4150177;28;20137;-70
2022/04/06 09:07:22;;;;;;;0.00;0.00;;;13.80;79.10;;;;;;4163924;28;20132;-71
2022/04/06 09:09:49;;;;;;;0.00;0.00;;;13.80;78.60;;;;;;4163908;28;20180;-70
2022/04/06 09:12:21;;;;;;;0.00;0.00;;;13.80;78.90;;;;;;4150127;28;20045;-70
2022/04/06 09:14:43;;;;;;;0.00;0.00;;;13.80;78.70;;;;;;4136442;28;20105;-72
2022/04/06 09:17:08;;;;;;;0.00;0.00;;;13.80;77.90;;;;;;4150017;28;20069;-71
2022/04/06 09:19:31;;;;;;;0.00;0.00;;;13.90;78.10;;;;;;4149925;28;20053;-71
2022/04/06 09:21:58;;;;;;;0.00;0.00;;;14.20;77.80;;;;;;4163829;28;20034;-69
2022/04/06 09:24:26;;;;;;;0.00;0.00;;;14.20;76.90;;;;;;4149981;28;20046;-70
2022/04/06 09:27:01;;;;;;;0.00;0.00;;;14.30;77.40;;;;;;4149678;28;20054;-70
2022/04/06 09:29:26;;;;;;;0.00;0.00;;;14.30;76.30;;;;;;4152666;28;20049;-70
2022/04/06 09:31:49;;;;;;;0.00;0.00;;;14.40;76.30;;;;;;4166627;28;20123;-71
2022/04/06 09:34:12;;;;;;;0.00;0.00;;;14.50;75.40;;;;;;4166828;28;20128;-69
2022/04/06 09:36:37;;;;;;;0.00;0.00;;;14.70;75.30;;;;;;4153033;28;20423;-69
2022/04/06 09:39:01;;;;;;;0.00;0.00;;;15.10;73.70;;;;;;4166196;28;20055;-71
2022/04/06 09:41:26;;;;;;;0.00;0.00;;;15.00;73.20;;;;;;4152816;28;20060;-71
2022/04/06 09:43:52;;;;;;;0.00;0.00;;;14.90;73.30;;;;;;4152875;28;20038;-69
2022/04/06 09:49:04;;;;;;;0.00;0.00;;;14.80;73.10;;;;;;4166076;28;20084;-71
2022/04/06 09:51:27;;;;;;;0.00;0.00;;;14.70;73.20;;;;;;4166497;28;20049;-70
2022/04/06 09:53:55;;;;;;;0.00;0.00;;;14.70;73.40;;;;;;4152510;28;20042;-72
2022/04/06 09:56:17;;;;;;;0.00;0.00;;;14.80;74.00;;;;;;4153216;28;20498;-69
2022/04/06 09:58:44;;;;;;;0.00;0.00;;;15.00;74.40;;;;;;4168517;28;20136;-68
2022/04/06 10:01:14;;;;;;;0.00;0.00;;;15.00;73.30;;;;;;4155219;28;20034;-68
2022/04/06 10:03:40;;;;;;;0.00;0.00;;;15.10;73.20;;;;;;4155284;28;20049;-68
2022/04/06 10:06:05;;;;;;;0.00;0.00;;;15.30;72.50;;;;;;4155247;28;20115;-70
2022/04/06 10:08:27;;;;;;;0.00;0.00;;;15.30;71.90;;;;;;4155140;28;20550;-70
2022/04/06 10:10:53;;;;;;;0.00;0.00;;;15.50;71.90;;;;;;4168231;28;20057;-71
2022/04/06 10:13:19;;;;;;;0.00;0.00;;;15.60;71.40;;;;;;4155074;28;20058;-71
2022/04/06 10:16:02;;;;;;;0.00;0.00;;;15.60;71.50;;;;;;4155036;28;20148;-70
2022/04/06 10:18:29;;;;;;;0.00;0.00;;;15.80;71.90;;;;;;4141770;28;20151;-71
2022/04/06 10:20:55;;;;;;;0.00;0.00;;;16.00;71.20;;;;;;4154485;28;20062;-72
2022/04/06 10:23:32;;;;;;;0.00;0.00;;;16.40;71.50;;;;;;4154999;28;20056;-70
2022/04/06 10:26:19;;;;;;;0.00;0.00;;;16.40;70.20;;;;;;4168719;28;20080;-68
2022/04/06 10:28:48;;;;;;;0.00;0.00;;;16.50;70.80;;;;;;4168268;28;20053;-68
2022/04/06 10:31:19;;;;;;;0.00;0.00;;;16.80;69.60;;;;;;4168580;28;20107;-72
2022/04/06 10:33:46;;;;;;;0.00;0.00;;;16.50;68.70;;;;;;4155241;28;20049;-72
2022/04/06 10:36:30;;;;;;;0.00;0.00;;;16.20;70.50;;;;;;4154656;28;20042;-71
2022/04/06 10:39:07;;;;;;;0.00;0.00;;;16.00;69.30;;;;;;4167976;28;20049;-69
2022/04/06 10:41:31;;;;;;;0.00;0.00;;;15.90;71.00;;;;;;4168509;28;20050;-70
2022/04/06 10:44:41;;;;;;;0.00;0.00;;;15.90;72.00;;;;;;4168401;28;20467;-69
2022/04/06 10:47:08;;;;;;;0.00;0.00;;;16.20;70.90;;;;;;4167990;28;20037;-71
2022/04/06 10:49:30;;;;;;;0.00;0.00;;;16.50;70.70;;;;;;4168167;28;20519;-69
2022/04/06 10:51:56;;;;;;;0.00;0.00;;;16.70;70.30;;;;;;4168311;28;20038;-69
2022/04/06 10:54:18;;;;;;;0.00;0.00;;;16.70;69.30;;;;;;4168326;28;20384;-70
2022/04/06 10:56:52;;;;;;;0.00;0.00;;;16.60;68.70;;;;;;4153850;28;20054;-71
2022/04/06 10:59:18;;;;;;;0.00;0.00;;;16.50;69.70;;;;;;4154471;28;20050;-72
2022/04/06 11:01:46;;;;;;;0.00;0.00;;;16.40;70.40;;;;;;4167926;28;20037;-72
2022/04/06 11:04:24;;;;;;;0.00;0.00;;;16.40;69.90;;;;;;4168070;28;20111;-68
2022/04/06 11:06:53;;;;;;;0.00;0.00;;;16.30;70.30;;;;;;4167783;28;20048;-70
2022/04/06 11:12:20;;;;;;;0.00;0.00;;;16.30;69.40;;;;;;4167920;28;20053;-71
2022/04/06 11:14:50;;;;;;;0.00;0.00;;;16.30;68.80;;;;;;4153574;28;20066;-68
2022/04/06 11:19:59;;;;;;;0.00;0.00;;;16.50;68.00;;;;;;4167750;28;20121;-70
2022/04/06 11:22:24;;;;;;;0.00;0.00;;;16.60;68.30;;;;;;4167365;28;20034;-73
2022/04/06 11:24:59;;;;;;;0.00;0.00;;;16.70;67.70;;;;;;4167145;28;20124;-74
2022/04/06 11:27:35;;;;;;;0.00;0.00;;;16.80;68.10;;;;;;4167720;28;20701;-69
2022/04/06 11:30:02;;;;;;;0.00;0.00;;;17.10;68.80;;;;;;4154481;28;20575;-70
2022/04/06 11:32:26;;;;;;;0.00;0.00;;;17.30;67.40;;;;;;4167580;28;20757;-68
2022/04/06 11:34:48;;;;;;;0.00;0.00;;;17.50;66.80;;;;;;4167412;28;20115;-72
2022/04/06 11:37:12;;;;;;;0.00;0.00;;;17.70;66.90;;;;;;4139911;28;20042;-72
2022/04/06 11:39:37;;;;;;;0.00;0.00;;;17.60;67.20;;;;;;4153855;28;20501;-73
2022/04/06 11:42:06;;;;;;;0.00;0.00;;;17.70;67.20;;;;;;4167257;28;20053;-73
2022/04/06 11:44:31;;;;;;;0.00;0.00;;;17.80;66.60;;;;;;4167488;28;20099;-70
2022/04/06 11:46:54;;;;;;;0.00;0.00;;;17.80;67.80;;;;;;4166912;28;20049;-75
2022/04/06 11:49:26;;;;;;;0.00;0.00;;;18.00;67.10;;;;;;4167225;28;20060;-70
2022/04/06 11:51:51;;;;;;;0.00;0.00;;;17.80;66.30;;;;;;4153040;28;20081;-71
2022/04/06 11:54:19;;;;;;;0.00;0.00;;;17.50;67.10;;;;;;4167383;28;20460;-72
2022/04/06 11:56:43;;;;;;;0.00;0.00;;;17.40;67.90;;;;;;4166377;28;20053;-71
2022/04/06 11:59:10;;;;;;;0.00;0.00;;;17.30;67.10;;;;;;4153406;28;20046;-71
2022/04/06 12:01:45;;;;;;;0.00;0.00;;;17.30;66.80;;;;;;4167136;28;20472;-70
2022/04/06 12:04:22;;;;;;;0.00;0.00;;;17.30;66.40;;;;;;4166907;28;20049;-68
2022/04/06 12:06:50;;;;;;;0.00;0.00;;;17.30;64.80;;;;;;4166554;28;20053;-71
2022/04/06 12:09:15;;;;;;;0.00;0.00;;;17.50;64.50;;;;;;4167188;28;20056;-71
2022/04/06 12:11:43;;;;;;;0.00;0.00;;;17.70;65.00;;;;;;4167444;28;20519;-72
2022/04/06 12:14:10;;;;;;;0.00;0.00;;;17.90;64.80;;;;;;4167225;28;20057;-69
2022/04/06 12:16:38;;;;;;;0.00;0.00;;;18.10;63.20;;;;;;4166959;28;20060;-72
2022/04/06 12:19:05;;;;;;;0.00;0.00;;;18.20;63.60;;;;;;4152943;28;20045;-69
2022/04/06 12:21:30;;;;;;;0.00;0.00;;;18.30;63.50;;;;;;4166510;28;20056;-71
2022/04/06 12:23:53;;;;;;;0.00;0.00;;;18.40;62.70;;;;;;4166577;28;20114;-69
2022/04/06 12:26:15;;;;;;;0.00;0.00;;;18.60;62.10;;;;;;4153210;28;20060;-70
2022/04/06 12:28:40;;;;;;;0.00;0.00;;;18.80;61.50;;;;;;4166867;28;20056;-69
2022/04/06 12:31:02;;;;;;;0.00;0.00;;;18.80;60.70;;;;;;4180248;28;20483;-70
2022/04/06 12:33:50;;;;;;;0.00;0.00;;;19.00;59.70;;;;;;4140110;28;20038;-69
2022/04/06 12:36:27;;;;;;;0.00;0.00;;;19.20;59.40;;;;;;4139567;28;20046;-69
2022/04/06 12:38:59;;;;;;;0.00;0.00;;;19.30;59.30;;;;;;4166100;28;20388;-73
2022/04/06 12:41:25;;;;;;;0.00;0.00;;;19.40;59.90;;;;;;4166600;28;20808;-71
2022/04/06 12:43:47;;;;;;;0.00;0.00;;;19.50;60.80;;;;;;4166541;28;20112;-68
2022/04/06 12:46:09;;;;;;;0.00;0.00;;;19.50;61.30;;;;;;4166480;28;20042;-71
2022/04/06 12:48:33;;;;;;;0.00;0.00;;;19.40;58.10;;;;;;4166791;28;20050;-70
2022/04/06 12:51:25;;;;;;;0.00;0.00;;;19.40;58.10;;;;;;4166138;28;20129;-69
2022/04/06 12:53:54;;;;;;;0.00;0.00;;;19.40;57.10;;;;;;4166655;28;20459;-72
2022/04/06 12:56:23;;;;;;;0.00;0.00;;;19.30;55.40;;;;;;4166308;28;20057;-70